Shinsei Maru — JD2188 — position and weather

sailwx.info

Track history (hours):
 
Tides and Currents Weather Stations Pressure Air Temp Water Temp Dewpoint Dewpoint Depression Visibility Wind Speed Wind Dir Waves Ship Positions

Shinsei Maru

Last reported at 2017-Jan-20 15:33 UTC. Time now 2017-Jan-23 08:32 UTC.
Position N 35°06' E 139°41'.

Length 104 m; draft 6.5 m.

Type: Tanker. MMSI: 431301775.

Date/timePositionNaut miles runAvg speedWind from/ knotsBaromVisibWave heightAir tempDewpointWater temp
2017-Jan-20 15:33N 35°06' E 139°41'1211.8
2017-Jan-20 14:33N 35°18' E 139°44'1211.6
2017-Jan-20 13:34N 35°29' E 139°47'2 1.7
2017-Jan-20 12:27N 35°31' E 139°46'0 0.0
2017-Jan-20 11:33N 35°31' E 139°46'0 0.0
2017-Jan-20 10:33N 35°31' E 139°46'0 0.0
2017-Jan-20 09:33N 35°31' E 139°46'0 0.0
2017-Jan-20 08:33N 35°31' E 139°46'0 0.0
2017-Jan-20 07:33N 35°31' E 139°46'0 0.0
2017-Jan-20 06:33N 35°31' E 139°46'0 0.0
2017-Jan-20 05:33N 35°31' E 139°46'0 0.0
2017-Jan-20 04:33N 35°31' E 139°46'0 0.0
2017-Jan-20 03:27N 35°31' E 139°46'0 0.0
2017-Jan-20 02:33N 35°31' E 139°46'0 0.0
2017-Jan-20 01:33N 35°31' E 139°46'0 0.0
2017-Jan-20 00:30N 35°31' E 139°46'4 4.4
2017-Jan-19 23:33N 35°27' E 139°44'5 4.7
2017-Jan-19 22:33N 35°29' E 139°49'0 0.0
2017-Jan-19 21:30N 35°29' E 139°49'0 0.0
2017-Jan-19 20:33N 35°29' E 139°49'0 0.0
2017-Jan-19 19:30N 35°29' E 139°49'0 0.1
2017-Jan-19 18:33N 35°29' E 139°49'0 0.0
2017-Jan-19 17:33N 35°29' E 139°49'0 0.0
2017-Jan-19 16:30N 35°29' E 139°49'0 0.0
2017-Jan-19 15:33N 35°29' E 139°49'0 0.0
2017-Jan-19 14:33N 35°29' E 139°49'0 0.0
2017-Jan-19 13:33N 35°29' E 139°49'0 0.0
2017-Jan-19 12:33N 35°29' E 139°49'0 0.0
2017-Jan-19 11:33N 35°29' E 139°49'0 0.0
2017-Jan-19 10:33N 35°29' E 139°49'0 0.0
2017-Jan-19 09:33N 35°29' E 139°49'0 0.0
2017-Jan-19 08:33N 35°29' E 139°49'0 0.1
2017-Jan-19 07:33N 35°29' E 139°49'0 0.0
2017-Jan-19 06:33N 35°29' E 139°49'0 0.0
2017-Jan-19 05:33N 35°29' E 139°49'0 0.1
2017-Jan-19 04:33N 35°29' E 139°49'0 0.1
2017-Jan-19 03:33N 35°29' E 139°49'0 0.0
2017-Jan-19 02:33N 35°29' E 139°49'0 0.1
2017-Jan-19 01:33N 35°29' E 139°49'0 0.0
2017-Jan-19 00:33N 35°29' E 139°49'0 0.0
2017-Jan-18 23:33N 35°29' E 139°49'0 0.0
2017-Jan-18 22:33N 35°29' E 139°49'0 0.0
2017-Jan-18 21:33N 35°29' E 139°49'0 0.0
2017-Jan-18 20:33N 35°29' E 139°49'0 0.0
2017-Jan-18 19:33N 35°29' E 139°49'0 0.1
2017-Jan-18 18:33N 35°29' E 139°49'0 0.1
2017-Jan-18 17:33N 35°29' E 139°49'0 0.0
2017-Jan-18 16:33N 35°29' E 139°49'0 0.0
2017-Jan-18 15:33N 35°29' E 139°49'0 0.0
2017-Jan-18 14:33N 35°29' E 139°49'0 0.0
2017-Jan-18 13:33N 35°29' E 139°49'0 0.0
2017-Jan-18 12:33N 35°29' E 139°49'0 0.0
2017-Jan-18 11:33N 35°29' E 139°49'0 0.0
2017-Jan-18 10:33N 35°29' E 139°49'0 0.0
2017-Jan-18 09:33N 35°29' E 139°49'0 0.0
2017-Jan-18 08:33N 35°29' E 139°49'0 0.1
2017-Jan-18 07:33N 35°29' E 139°49'0 0.0
2017-Jan-18 06:33N 35°29' E 139°49'0 0.0
2017-Jan-18 05:33N 35°29' E 139°49'0 0.0
2017-Jan-18 04:33N 35°29' E 139°49'0 0.0
2017-Jan-18 03:30N 35°29' E 139°49'0 0.0
2017-Jan-18 02:33N 35°29' E 139°49'0 0.0
2017-Jan-18 01:33N 35°29' E 139°49'0 0.0
2017-Jan-18 00:33N 35°29' E 139°49'0 0.0
2017-Jan-17 23:33N 35°29' E 139°49'0 0.0
2017-Jan-17 22:33N 35°29' E 139°49'0 0.1
2017-Jan-17 21:30N 35°29' E 139°49'3 3.2
2017-Jan-17 20:31N 35°30' E 139°45'0 0.0
2017-Jan-17 19:31N 35°30' E 139°45'0 0.0
2017-Jan-17 18:31N 35°30' E 139°45'0 0.0
2017-Jan-17 17:31N 35°30' E 139°45'0 0.0
2017-Jan-17 16:28N 35°30' E 139°45'0 0.1
2017-Jan-17 15:31N 35°30' E 139°45'0 0.0
2017-Jan-17 14:28N 35°30' E 139°45'0 0.1
2017-Jan-17 13:31N 35°30' E 139°45'0 0.0
2017-Jan-17 12:31N 35°30' E 139°45'0 0.0
2017-Jan-17 11:31N 35°30' E 139°45'0 0.0
2017-Jan-17 10:31N 35°30' E 139°45'0 0.0
2017-Jan-17 09:31N 35°30' E 139°45'0 0.0
2017-Jan-17 08:31N 35°30' E 139°45'0 0.0
2017-Jan-17 07:31N 35°30' E 139°45'0 0.0
2017-Jan-17 06:28N 35°30' E 139°45'0 0.1
2017-Jan-17 05:31N 35°30' E 139°45'0 0.0
2017-Jan-17 04:31N 35°30' E 139°45'0 0.0
2017-Jan-17 03:31N 35°30' E 139°45'0 0.0
2017-Jan-17 02:31N 35°30' E 139°45'0 0.0
2017-Jan-17 01:31N 35°30' E 139°45'0 0.0
2017-Jan-17 00:31N 35°30' E 139°45'0 0.0
2017-Jan-16 23:31N 35°30' E 139°45'0 0.0
2017-Jan-16 22:31N 35°30' E 139°45'0 0.0
2017-Jan-16 21:31N 35°30' E 139°45'0 0.0
2017-Jan-16 20:31N 35°30' E 139°45'0 0.0
2017-Jan-16 19:31N 35°30' E 139°45'0 0.0
2017-Jan-16 18:31N 35°30' E 139°45'0 0.0
2017-Jan-16 17:31N 35°30' E 139°45'0 0.0
2017-Jan-16 16:31N 35°30' E 139°45'0 0.0
2017-Jan-16 15:31N 35°30' E 139°45'0 0.0
2017-Jan-16 14:31N 35°30' E 139°45'0 0.0
2017-Jan-16 13:31N 35°30' E 139°45'0 0.0
2017-Jan-16 12:31N 35°30' E 139°45'0 0.0
2017-Jan-16 11:31N 35°30' E 139°45'0 0.0
2017-Jan-16 10:31N 35°30' E 139°45'4 3.8
2017-Jan-16 09:33N 35°27' E 139°43'4 3.7
2017-Jan-16 08:32N 35°24' E 139°45'0 0.0
2017-Jan-16 07:32N 35°24' E 139°45'0 0.1
2017-Jan-16 06:32N 35°24' E 139°45'0 0.1
2017-Jan-16 05:32N 35°24' E 139°45'0 0.1
2017-Jan-16 04:32N 35°24' E 139°45'0 0.0
2017-Jan-16 03:32N 35°24' E 139°45'0 0.0
2017-Jan-16 02:32N 35°24' E 139°45'0 0.0
2017-Jan-16 01:29N 35°24' E 139°45'0 0.3
2017-Jan-16 00:34N 35°23' E 139°45'1211.8
2017-Jan-15 23:33N 35°11' E 139°47'  
Track history (hours):
 
Tides and Currents Weather Stations Pressure Air Temp Water Temp Dewpoint Dewpoint Depression Visibility Wind Speed Wind Dir Waves Ship Positions

Shinsei Maru

Last reported at 2017-Jan-20 15:33 UTC. Time now 2017-Jan-23 08:32 UTC.
Position N 35°06' E 139°41'.

Length 104 m; draft 6.5 m.

Type: Tanker. MMSI: 431301775.

Date/timePositionNaut miles runAvg speedWind from/ knotsBaromVisibWave heightAir tempDewpointWater temp
2017-Jan-20 15:33N 35°06' E 139°41'1211.8
2017-Jan-20 14:33N 35°18' E 139°44'1211.6
2017-Jan-20 13:34N 35°29' E 139°47'2 1.7
2017-Jan-20 12:27N 35°31' E 139°46'0 0.0
2017-Jan-20 11:33N 35°31' E 139°46'0 0.0
2017-Jan-20 10:33N 35°31' E 139°46'0 0.0
2017-Jan-20 09:33N 35°31' E 139°46'0 0.0
2017-Jan-20 08:33N 35°31' E 139°46'0 0.0
2017-Jan-20 07:33N 35°31' E 139°46'0 0.0
2017-Jan-20 06:33N 35°31' E 139°46'0 0.0
2017-Jan-20 05:33N 35°31' E 139°46'0 0.0
2017-Jan-20 04:33N 35°31' E 139°46'0 0.0
2017-Jan-20 03:27N 35°31' E 139°46'0 0.0
2017-Jan-20 02:33N 35°31' E 139°46'0 0.0
2017-Jan-20 01:33N 35°31' E 139°46'0 0.0
2017-Jan-20 00:30N 35°31' E 139°46'4 4.4
2017-Jan-19 23:33N 35°27' E 139°44'5 4.7
2017-Jan-19 22:33N 35°29' E 139°49'0 0.0
2017-Jan-19 21:30N 35°29' E 139°49'0 0.0
2017-Jan-19 20:33N 35°29' E 139°49'0 0.0
2017-Jan-19 19:30N 35°29' E 139°49'0 0.1
2017-Jan-19 18:33N 35°29' E 139°49'0 0.0
2017-Jan-19 17:33N 35°29' E 139°49'0 0.0
2017-Jan-19 16:30N 35°29' E 139°49'0 0.0
2017-Jan-19 15:33N 35°29' E 139°49'0 0.0
2017-Jan-19 14:33N 35°29' E 139°49'0 0.0
2017-Jan-19 13:33N 35°29' E 139°49'0 0.0
2017-Jan-19 12:33N 35°29' E 139°49'0 0.0
2017-Jan-19 11:33N 35°29' E 139°49'0 0.0
2017-Jan-19 10:33N 35°29' E 139°49'0 0.0
2017-Jan-19 09:33N 35°29' E 139°49'0 0.0
2017-Jan-19 08:33N 35°29' E 139°49'0 0.1
2017-Jan-19 07:33N 35°29' E 139°49'0 0.0
2017-Jan-19 06:33N 35°29' E 139°49'0 0.0
2017-Jan-19 05:33N 35°29' E 139°49'0 0.1
2017-Jan-19 04:33N 35°29' E 139°49'0 0.1
2017-Jan-19 03:33N 35°29' E 139°49'0 0.0
2017-Jan-19 02:33N 35°29' E 139°49'0 0.1
2017-Jan-19 01:33N 35°29' E 139°49'0 0.0
2017-Jan-19 00:33N 35°29' E 139°49'0 0.0
2017-Jan-18 23:33N 35°29' E 139°49'0 0.0
2017-Jan-18 22:33N 35°29' E 139°49'0 0.0
2017-Jan-18 21:33N 35°29' E 139°49'0 0.0
2017-Jan-18 20:33N 35°29' E 139°49'0 0.0
2017-Jan-18 19:33N 35°29' E 139°49'0 0.1
2017-Jan-18 18:33N 35°29' E 139°49'0 0.1
2017-Jan-18 17:33N 35°29' E 139°49'0 0.0
2017-Jan-18 16:33N 35°29' E 139°49'0 0.0
2017-Jan-18 15:33N 35°29' E 139°49'0 0.0
2017-Jan-18 14:33N 35°29' E 139°49'0 0.0
2017-Jan-18 13:33N 35°29' E 139°49'0 0.0
2017-Jan-18 12:33N 35°29' E 139°49'0 0.0
2017-Jan-18 11:33N 35°29' E 139°49'0 0.0
2017-Jan-18 10:33N 35°29' E 139°49'0 0.0
2017-Jan-18 09:33N 35°29' E 139°49'0 0.0
2017-Jan-18 08:33N 35°29' E 139°49'0 0.1
2017-Jan-18 07:33N 35°29' E 139°49'0 0.0
2017-Jan-18 06:33N 35°29' E 139°49'0 0.0
2017-Jan-18 05:33N 35°29' E 139°49'0 0.0
2017-Jan-18 04:33N 35°29' E 139°49'0 0.0
2017-Jan-18 03:30N 35°29' E 139°49'0 0.0
2017-Jan-18 02:33N 35°29' E 139°49'0 0.0
2017-Jan-18 01:33N 35°29' E 139°49'0 0.0
2017-Jan-18 00:33N 35°29' E 139°49'0 0.0
2017-Jan-17 23:33N 35°29' E 139°49'0 0.0
2017-Jan-17 22:33N 35°29' E 139°49'0 0.1
2017-Jan-17 21:30N 35°29' E 139°49'3 3.2
2017-Jan-17 20:31N 35°30' E 139°45'0 0.0
2017-Jan-17 19:31N 35°30' E 139°45'0 0.0
2017-Jan-17 18:31N 35°30' E 139°45'0 0.0
2017-Jan-17 17:31N 35°30' E 139°45'0 0.0
2017-Jan-17 16:28N 35°30' E 139°45'0 0.1
2017-Jan-17 15:31N 35°30' E 139°45'0 0.0
2017-Jan-17 14:28N 35°30' E 139°45'0 0.1
2017-Jan-17 13:31N 35°30' E 139°45'0 0.0
2017-Jan-17 12:31N 35°30' E 139°45'0 0.0
2017-Jan-17 11:31N 35°30' E 139°45'0 0.0
2017-Jan-17 10:31N 35°30' E 139°45'0 0.0
2017-Jan-17 09:31N 35°30' E 139°45'0 0.0
2017-Jan-17 08:31N 35°30' E 139°45'0 0.0
2017-Jan-17 07:31N 35°30' E 139°45'0 0.0
2017-Jan-17 06:28N 35°30' E 139°45'0 0.1
2017-Jan-17 05:31N 35°30' E 139°45'0 0.0
2017-Jan-17 04:31N 35°30' E 139°45'0 0.0
2017-Jan-17 03:31N 35°30' E 139°45'0 0.0
2017-Jan-17 02:31N 35°30' E 139°45'0 0.0
2017-Jan-17 01:31N 35°30' E 139°45'0 0.0
2017-Jan-17 00:31N 35°30' E 139°45'0 0.0
2017-Jan-16 23:31N 35°30' E 139°45'0 0.0
2017-Jan-16 22:31N 35°30' E 139°45'0 0.0
2017-Jan-16 21:31N 35°30' E 139°45'0 0.0
2017-Jan-16 20:31N 35°30' E 139°45'0 0.0
2017-Jan-16 19:31N 35°30' E 139°45'0 0.0
2017-Jan-16 18:31N 35°30' E 139°45'0 0.0
2017-Jan-16 17:31N 35°30' E 139°45'0 0.0
2017-Jan-16 16:31N 35°30' E 139°45'0 0.0
2017-Jan-16 15:31N 35°30' E 139°45'0 0.0
2017-Jan-16 14:31N 35°30' E 139°45'0 0.0
2017-Jan-16 13:31N 35°30' E 139°45'0 0.0
2017-Jan-16 12:31N 35°30' E 139°45'0 0.0
2017-Jan-16 11:31N 35°30' E 139°45'0 0.0
2017-Jan-16 10:31N 35°30' E 139°45'4 3.8
2017-Jan-16 09:33N 35°27' E 139°43'4 3.7
2017-Jan-16 08:32N 35°24' E 139°45'0 0.0
2017-Jan-16 07:32N 35°24' E 139°45'0 0.1
2017-Jan-16 06:32N 35°24' E 139°45'0 0.1
2017-Jan-16 05:32N 35°24' E 139°45'0 0.1
2017-Jan-16 04:32N 35°24' E 139°45'0 0.0
2017-Jan-16 03:32N 35°24' E 139°45'0 0.0
2017-Jan-16 02:32N 35°24' E 139°45'0 0.0
2017-Jan-16 01:29N 35°24' E 139°45'0 0.3
2017-Jan-16 00:34N 35°23' E 139°45'1211.8
2017-Jan-15 23:33N 35°11' E 139°47'  

Dump ship's entire track history